sensor_id;sensor_type;location;lat;lon;timestamp;P1;durP1;ratioP1;P2;durP2;ratioP2
13230;SDS011;6681;53.254;10.398;2022-07-01T00:02:09;5.70;;;5.00;;
13230;SDS011;6681;53.254;10.398;2022-07-01T00:04:35;9.43;;;5.97;;
13230;SDS011;6681;53.254;10.398;2022-07-01T00:07:01;5.33;;;4.93;;
13230;SDS011;6681;53.254;10.398;2022-07-01T00:09:27;4.93;;;4.53;;
13230;SDS011;6681;53.254;10.398;2022-07-01T00:11:52;6.93;;;5.33;;
13230;SDS011;6681;53.254;10.398;2022-07-01T00:14:18;8.77;;;5.67;;
13230;SDS011;6681;53.254;10.398;2022-07-01T00:16:44;6.37;;;4.57;;
13230;SDS011;6681;53.254;10.398;2022-07-01T00:19:10;6.33;;;5.63;;
13230;SDS011;6681;53.254;10.398;2022-07-01T00:21:35;5.83;;;5.33;;
13230;SDS011;6681;53.254;10.398;2022-07-01T00:24:01;6.43;;;5.93;;
13230;SDS011;6681;53.254;10.398;2022-07-01T00:26:27;4.87;;;4.43;;
13230;SDS011;6681;53.254;10.398;2022-07-01T00:28:53;5.83;;;3.47;;
13230;SDS011;6681;53.254;10.398;2022-07-01T00:31:18;3.93;;;3.20;;
13230;SDS011;6681;53.254;10.398;2022-07-01T00:33:44;5.47;;;3.20;;
13230;SDS011;6681;53.254;10.398;2022-07-01T00:36:09;5.37;;;2.87;;
13230;SDS011;6681;53.254;10.398;2022-07-01T00:38:35;3.30;;;2.20;;
13230;SDS011;6681;53.254;10.398;2022-07-01T00:41:01;2.40;;;2.20;;
13230;SDS011;6681;53.254;10.398;2022-07-01T00:43:26;2.70;;;1.93;;
13230;SDS011;6681;53.254;10.398;2022-07-01T00:45:52;1.93;;;1.83;;
13230;SDS011;6681;53.254;10.398;2022-07-01T00:48:21;2.67;;;2.23;;
13230;SDS011;6681;53.254;10.398;2022-07-01T00:50:47;2.53;;;2.40;;
13230;SDS011;6681;53.254;10.398;2022-07-01T00:53:14;3.47;;;2.60;;
13230;SDS011;6681;53.254;10.398;2022-07-01T00:55:42;4.30;;;2.90;;
13230;SDS011;6681;53.254;10.398;2022-07-01T00:58:08;3.23;;;2.53;;
13230;SDS011;6681;53.254;10.398;2022-07-01T01:00:34;4.50;;;2.80;;
13230;SDS011;6681;53.254;10.398;2022-07-01T01:03:03;2.63;;;2.43;;
13230;SDS011;6681;53.254;10.398;2022-07-01T01:05:31;2.00;;;1.90;;
13230;SDS011;6681;53.254;10.398;2022-07-01T01:07:56;2.87;;;1.60;;
13230;SDS011;6681;53.254;10.398;2022-07-01T01:10:22;4.50;;;2.70;;
13230;SDS011;6681;53.254;10.398;2022-07-01T01:12:49;2.27;;;1.80;;
13230;SDS011;6681;53.254;10.398;2022-07-01T01:15:18;3.70;;;2.50;;
13230;SDS011;6681;53.254;10.398;2022-07-01T01:17:44;2.67;;;2.33;;
13230;SDS011;6681;53.254;10.398;2022-07-01T01:20:14;3.30;;;2.20;;
13230;SDS011;6681;53.254;10.398;2022-07-01T01:22:44;3.83;;;2.03;;
13230;SDS011;6681;53.254;10.398;2022-07-01T01:25:11;4.07;;;2.57;;
13230;SDS011;6681;53.254;10.398;2022-07-01T01:27:37;2.73;;;2.40;;
13230;SDS011;6681;53.254;10.398;2022-07-01T01:30:04;2.00;;;1.90;;
13230;SDS011;6681;53.254;10.398;2022-07-01T01:32:30;7.43;;;3.30;;
13230;SDS011;6681;53.254;10.398;2022-07-01T01:34:56;4.57;;;3.10;;
13230;SDS011;6681;53.254;10.398;2022-07-01T01:37:21;2.83;;;2.63;;
13230;SDS011;6681;53.254;10.398;2022-07-01T01:39:47;5.87;;;2.20;;
13230;SDS011;6681;53.254;10.398;2022-07-01T01:42:12;2.80;;;2.57;;
13230;SDS011;6681;53.254;10.398;2022-07-01T01:44:38;2.13;;;2.03;;
13230;SDS011;6681;53.254;10.398;2022-07-01T01:47:04;2.53;;;1.90;;
13230;SDS011;6681;53.254;10.398;2022-07-01T01:49:29;3.00;;;2.80;;
13230;SDS011;6681;53.254;10.398;2022-07-01T01:51:56;3.23;;;3.03;;
13230;SDS011;6681;53.254;10.398;2022-07-01T01:54:24;3.20;;;3.00;;
13230;SDS011;6681;53.254;10.398;2022-07-01T01:56:50;4.40;;;2.77;;
13230;SDS011;6681;53.254;10.398;2022-07-01T01:59:16;1.83;;;1.73;;
13230;SDS011;6681;53.254;10.398;2022-07-01T02:01:41;2.33;;;2.03;;
13230;SDS011;6681;53.254;10.398;2022-07-01T02:04:07;2.43;;;1.87;;
13230;SDS011;6681;53.254;10.398;2022-07-01T02:06:32;4.77;;;2.47;;
13230;SDS011;6681;53.254;10.398;2022-07-01T02:08:58;3.20;;;2.57;;
13230;SDS011;6681;53.254;10.398;2022-07-01T02:11:24;2.60;;;2.20;;
13230;SDS011;6681;53.254;10.398;2022-07-01T02:13:49;1.87;;;1.77;;
13230;SDS011;6681;53.254;10.398;2022-07-01T02:16:15;2.37;;;1.70;;
13230;SDS011;6681;53.254;10.398;2022-07-01T02:18:40;3.10;;;2.80;;
13230;SDS011;6681;53.254;10.398;2022-07-01T02:21:06;2.27;;;2.00;;
13230;SDS011;6681;53.254;10.398;2022-07-01T02:23:32;3.50;;;2.93;;
13230;SDS011;6681;53.254;10.398;2022-07-01T02:25:58;3.73;;;2.27;;
13230;SDS011;6681;53.254;10.398;2022-07-01T02:28:23;3.07;;;2.80;;
13230;SDS011;6681;53.254;10.398;2022-07-01T02:30:49;3.30;;;3.00;;
13230;SDS011;6681;53.254;10.398;2022-07-01T02:33:14;4.40;;;3.00;;
13230;SDS011;6681;53.254;10.398;2022-07-01T02:35:40;9.27;;;3.17;;
13230;SDS011;6681;53.254;10.398;2022-07-01T02:38:06;4.80;;;2.67;;
13230;SDS011;6681;53.254;10.398;2022-07-01T02:40:33;5.97;;;3.13;;
13230;SDS011;6681;53.254;10.398;2022-07-01T02:43:02;3.37;;;3.10;;
13230;SDS011;6681;53.254;10.398;2022-07-01T02:45:28;3.47;;;3.17;;
13230;SDS011;6681;53.254;10.398;2022-07-01T02:47:54;4.20;;;3.10;;
13230;SDS011;6681;53.254;10.398;2022-07-01T02:50:20;5.37;;;3.33;;
13230;SDS011;6681;53.254;10.398;2022-07-01T02:52:46;4.33;;;3.90;;
13230;SDS011;6681;53.254;10.398;2022-07-01T02:55:12;4.90;;;3.73;;
13230;SDS011;6681;53.254;10.398;2022-07-01T02:57:39;4.10;;;3.70;;
13230;SDS011;6681;53.254;10.398;2022-07-01T03:00:06;4.53;;;4.03;;
13230;SDS011;6681;53.254;10.398;2022-07-01T03:02:33;6.47;;;4.60;;
13230;SDS011;6681;53.254;10.398;2022-07-01T03:05:00;9.43;;;5.67;;
13230;SDS011;6681;53.254;10.398;2022-07-01T03:07:26;5.73;;;4.67;;
13230;SDS011;6681;53.254;10.398;2022-07-01T03:09:52;4.70;;;3.90;;
13230;SDS011;6681;53.254;10.398;2022-07-01T03:12:18;6.93;;;5.37;;
13230;SDS011;6681;53.254;10.398;2022-07-01T03:14:53;8.37;;;4.93;;
13230;SDS011;6681;53.254;10.398;2022-07-01T03:17:26;6.47;;;4.90;;
13230;SDS011;6681;53.254;10.398;2022-07-01T03:19:54;6.07;;;3.77;;
13230;SDS011;6681;53.254;10.398;2022-07-01T03:22:21;3.80;;;3.50;;
13230;SDS011;6681;53.254;10.398;2022-07-01T03:24:48;3.53;;;3.23;;
13230;SDS011;6681;53.254;10.398;2022-07-01T03:27:15;4.10;;;3.70;;
13230;SDS011;6681;53.254;10.398;2022-07-01T03:29:41;9.17;;;5.67;;
13230;SDS011;6681;53.254;10.398;2022-07-01T03:32:07;4.73;;;4.33;;
13230;SDS011;6681;53.254;10.398;2022-07-01T03:34:37;8.47;;;4.00;;
13230;SDS011;6681;53.254;10.398;2022-07-01T03:37:04;3.93;;;3.53;;
13230;SDS011;6681;53.254;10.398;2022-07-01T03:39:30;4.23;;;3.73;;
13230;SDS011;6681;53.254;10.398;2022-07-01T03:41:56;4.20;;;3.67;;
13230;SDS011;6681;53.254;10.398;2022-07-01T03:44:22;4.73;;;4.30;;
13230;SDS011;6681;53.254;10.398;2022-07-01T03:46:47;5.40;;;4.90;;
13230;SDS011;6681;53.254;10.398;2022-07-01T03:49:13;5.20;;;4.60;;
13230;SDS011;6681;53.254;10.398;2022-07-01T03:51:38;3.53;;;3.27;;
13230;SDS011;6681;53.254;10.398;2022-07-01T03:54:04;5.33;;;4.40;;
13230;SDS011;6681;53.254;10.398;2022-07-01T03:56:48;4.47;;;4.07;;
13230;SDS011;6681;53.254;10.398;2022-07-01T03:59:17;5.87;;;4.33;;
13230;SDS011;6681;53.254;10.398;2022-07-01T04:01:42;7.00;;;5.30;;
13230;SDS011;6681;53.254;10.398;2022-07-01T04:04:08;7.53;;;5.40;;
13230;SDS011;6681;53.254;10.398;2022-07-01T04:06:34;6.00;;;5.40;;
13230;SDS011;6681;53.254;10.398;2022-07-01T04:09:00;5.90;;;4.60;;
13230;SDS011;6681;53.254;10.398;2022-07-01T04:11:26;6.23;;;5.03;;
13230;SDS011;6681;53.254;10.398;2022-07-01T04:13:52;4.37;;;4.00;;
13230;SDS011;6681;53.254;10.398;2022-07-01T04:16:18;5.70;;;5.20;;
13230;SDS011;6681;53.254;10.398;2022-07-01T04:18:45;4.93;;;3.97;;
13230;SDS011;6681;53.254;10.398;2022-07-01T04:21:11;6.30;;;4.40;;
13230;SDS011;6681;53.254;10.398;2022-07-01T04:23:55;4.67;;;4.27;;
13230;SDS011;6681;53.254;10.398;2022-07-01T04:26:22;4.40;;;4.00;;
13230;SDS011;6681;53.254;10.398;2022-07-01T04:28:49;4.77;;;4.33;;
13230;SDS011;6681;53.254;10.398;2022-07-01T04:31:18;5.10;;;4.27;;
13230;SDS011;6681;53.254;10.398;2022-07-01T04:33:44;3.80;;;3.50;;
13230;SDS011;6681;53.254;10.398;2022-07-01T04:36:10;2.67;;;2.47;;
13230;SDS011;6681;53.254;10.398;2022-07-01T04:38:36;3.67;;;3.33;;
13230;SDS011;6681;53.254;10.398;2022-07-01T04:41:02;5.50;;;3.63;;
13230;SDS011;6681;53.254;10.398;2022-07-01T04:43:46;3.90;;;3.53;;
13230;SDS011;6681;53.254;10.398;2022-07-01T04:46:12;5.37;;;4.00;;
13230;SDS011;6681;53.254;10.398;2022-07-01T04:48:37;5.03;;;4.53;;
13230;SDS011;6681;53.254;10.398;2022-07-01T04:51:05;9.73;;;6.67;;
13230;SDS011;6681;53.254;10.398;2022-07-01T04:53:31;5.53;;;5.13;;
13230;SDS011;6681;53.254;10.398;2022-07-01T04:55:56;4.97;;;4.50;;
13230;SDS011;6681;53.254;10.398;2022-07-01T04:58:22;5.90;;;4.90;;
13230;SDS011;6681;53.254;10.398;2022-07-01T05:00:48;7.60;;;5.80;;
13230;SDS011;6681;53.254;10.398;2022-07-01T05:03:13;5.67;;;5.20;;
13230;SDS011;6681;53.254;10.398;2022-07-01T05:05:39;7.23;;;6.57;;
13230;SDS011;6681;53.254;10.398;2022-07-01T05:08:05;8.47;;;7.80;;
13230;SDS011;6681;53.254;10.398;2022-07-01T05:10:31;7.03;;;6.33;;
13230;SDS011;6681;53.254;10.398;2022-07-01T05:12:56;9.23;;;8.33;;
13230;SDS011;6681;53.254;10.398;2022-07-01T05:15:22;9.73;;;8.83;;
13230;SDS011;6681;53.254;10.398;2022-07-01T05:17:48;9.40;;;8.50;;
13230;SDS011;6681;53.254;10.398;2022-07-01T05:20:32;10.80;;;9.70;;
13230;SDS011;6681;53.254;10.398;2022-07-01T05:23:16;9.60;;;8.60;;
13230;SDS011;6681;53.254;10.398;2022-07-01T05:25:41;11.43;;;8.80;;
13230;SDS011;6681;53.254;10.398;2022-07-01T05:28:07;7.87;;;7.17;;
13230;SDS011;6681;53.254;10.398;2022-07-01T05:30:33;9.17;;;7.07;;
13230;SDS011;6681;53.254;10.398;2022-07-01T05:32:58;9.23;;;4.70;;
13230;SDS011;6681;53.254;10.398;2022-07-01T05:35:24;6.20;;;5.60;;
13230;SDS011;6681;53.254;10.398;2022-07-01T05:37:49;4.93;;;4.00;;
13230;SDS011;6681;53.254;10.398;2022-07-01T05:40:15;4.40;;;3.87;;
13230;SDS011;6681;53.254;10.398;2022-07-01T05:42:40;6.17;;;5.37;;
13230;SDS011;6681;53.254;10.398;2022-07-01T05:45:06;4.10;;;3.80;;
13230;SDS011;6681;53.254;10.398;2022-07-01T05:47:32;4.03;;;3.63;;
13230;SDS011;6681;53.254;10.398;2022-07-01T05:49:57;4.80;;;4.30;;
13230;SDS011;6681;53.254;10.398;2022-07-01T05:52:23;4.07;;;3.67;;
13230;SDS011;6681;53.254;10.398;2022-07-01T05:54:49;3.03;;;2.83;;
13230;SDS011;6681;53.254;10.398;2022-07-01T05:57:14;3.60;;;2.43;;
13230;SDS011;6681;53.254;10.398;2022-07-01T05:59:40;2.43;;;2.13;;
13230;SDS011;6681;53.254;10.398;2022-07-01T06:02:06;2.47;;;2.27;;
13230;SDS011;6681;53.254;10.398;2022-07-01T06:04:31;3.67;;;1.67;;
13230;SDS011;6681;53.254;10.398;2022-07-01T06:06:58;2.07;;;1.50;;
13230;SDS011;6681;53.254;10.398;2022-07-01T06:09:24;1.80;;;1.53;;
13230;SDS011;6681;53.254;10.398;2022-07-01T06:11:50;2.67;;;2.00;;
13230;SDS011;6681;53.254;10.398;2022-07-01T06:14:16;1.53;;;1.20;;
13230;SDS011;6681;53.254;10.398;2022-07-01T06:16:41;0.40;;;0.40;;
13230;SDS011;6681;53.254;10.398;2022-07-01T06:19:07;1.23;;;0.67;;
13230;SDS011;6681;53.254;10.398;2022-07-01T06:21:33;1.37;;;0.27;;
13230;SDS011;6681;53.254;10.398;2022-07-01T06:23:58;0.17;;;0.17;;
13230;SDS011;6681;53.254;10.398;2022-07-01T06:26:24;1.40;;;0.27;;
13230;SDS011;6681;53.254;10.398;2022-07-01T06:28:50;1.57;;;0.30;;
13230;SDS011;6681;53.254;10.398;2022-07-01T06:31:16;2.57;;;0.40;;
13230;SDS011;6681;53.254;10.398;2022-07-01T06:33:42;0.30;;;0.20;;
13230;SDS011;6681;53.254;10.398;2022-07-01T06:36:07;0.87;;;0.40;;
13230;SDS011;6681;53.254;10.398;2022-07-01T06:38:33;0.50;;;0.20;;
13230;SDS011;6681;53.254;10.398;2022-07-01T06:40:58;2.23;;;0.50;;
13230;SDS011;6681;53.254;10.398;2022-07-01T06:43:42;1.13;;;0.30;;
13230;SDS011;6681;53.254;10.398;2022-07-01T06:46:08;1.67;;;0.43;;
13230;SDS011;6681;53.254;10.398;2022-07-01T06:48:34;0.57;;;0.57;;
13230;SDS011;6681;53.254;10.398;2022-07-01T06:51:00;1.30;;;0.50;;
13230;SDS011;6681;53.254;10.398;2022-07-01T06:53:27;0.90;;;0.30;;
13230;SDS011;6681;53.254;10.398;2022-07-01T06:55:52;1.90;;;0.33;;
13230;SDS011;6681;53.254;10.398;2022-07-01T06:58:18;1.33;;;0.50;;
13230;SDS011;6681;53.254;10.398;2022-07-01T07:00:44;1.33;;;1.23;;
13230;SDS011;6681;53.254;10.398;2022-07-01T07:03:09;4.83;;;1.13;;
13230;SDS011;6681;53.254;10.398;2022-07-01T07:05:35;1.67;;;0.60;;
13230;SDS011;6681;53.254;10.398;2022-07-01T07:08:01;1.33;;;0.80;;
13230;SDS011;6681;53.254;10.398;2022-07-01T07:10:27;2.37;;;0.77;;
13230;SDS011;6681;53.254;10.398;2022-07-01T07:12:53;0.77;;;0.77;;
13230;SDS011;6681;53.254;10.398;2022-07-01T07:15:18;1.80;;;0.87;;
13230;SDS011;6681;53.254;10.398;2022-07-01T07:17:44;2.00;;;0.97;;
13230;SDS011;6681;53.254;10.398;2022-07-01T07:20:10;0.50;;;0.50;;
13230;SDS011;6681;53.254;10.398;2022-07-01T07:22:36;0.87;;;0.77;;
13230;SDS011;6681;53.254;10.398;2022-07-01T07:25:01;2.10;;;1.03;;
13230;SDS011;6681;53.254;10.398;2022-07-01T07:27:27;1.07;;;0.80;;
13230;SDS011;6681;53.254;10.398;2022-07-01T07:29:53;1.43;;;0.93;;
13230;SDS011;6681;53.254;10.398;2022-07-01T07:32:19;3.10;;;0.97;;
13230;SDS011;6681;53.254;10.398;2022-07-01T07:34:44;3.57;;;1.30;;
13230;SDS011;6681;53.254;10.398;2022-07-01T07:37:10;0.73;;;0.70;;
13230;SDS011;6681;53.254;10.398;2022-07-01T07:39:35;2.20;;;1.00;;
13230;SDS011;6681;53.254;10.398;2022-07-01T07:42:01;4.47;;;1.30;;
13230;SDS011;6681;53.254;10.398;2022-07-01T07:44:27;1.90;;;1.17;;
13230;SDS011;6681;53.254;10.398;2022-07-01T07:46:53;1.70;;;1.20;;
13230;SDS011;6681;53.254;10.398;2022-07-01T07:49:18;2.47;;;1.67;;
13230;SDS011;6681;53.254;10.398;2022-07-01T07:51:44;2.20;;;1.87;;
13230;SDS011;6681;53.254;10.398;2022-07-01T07:54:09;2.60;;;2.40;;
13230;SDS011;6681;53.254;10.398;2022-07-01T07:56:35;2.87;;;2.40;;
13230;SDS011;6681;53.254;10.398;2022-07-01T07:59:01;2.47;;;2.10;;
13230;SDS011;6681;53.254;10.398;2022-07-01T08:01:26;2.43;;;2.10;;
13230;SDS011;6681;53.254;10.398;2022-07-01T08:03:52;1.60;;;1.50;;
13230;SDS011;6681;53.254;10.398;2022-07-01T08:06:18;2.40;;;1.80;;
13230;SDS011;6681;53.254;10.398;2022-07-01T08:08:43;2.10;;;1.90;;
13230;SDS011;6681;53.254;10.398;2022-07-01T08:11:10;1.90;;;1.37;;
13230;SDS011;6681;53.254;10.398;2022-07-01T08:13:36;1.23;;;1.13;;
13230;SDS011;6681;53.254;10.398;2022-07-01T08:16:01;2.73;;;1.57;;
13230;SDS011;6681;53.254;10.398;2022-07-01T08:18:27;5.23;;;1.80;;
13230;SDS011;6681;53.254;10.398;2022-07-01T08:20:53;2.37;;;1.50;;
13230;SDS011;6681;53.254;10.398;2022-07-01T08:23:19;1.90;;;1.07;;
13230;SDS011;6681;53.254;10.398;2022-07-01T08:25:46;1.47;;;1.37;;
13230;SDS011;6681;53.254;10.398;2022-07-01T08:28:15;1.77;;;1.67;;
13230;SDS011;6681;53.254;10.398;2022-07-01T08:30:41;1.17;;;1.10;;
13230;SDS011;6681;53.254;10.398;2022-07-01T08:33:07;1.40;;;1.30;;
13230;SDS011;6681;53.254;10.398;2022-07-01T08:35:33;1.90;;;1.00;;
13230;SDS011;6681;53.254;10.398;2022-07-01T08:37:59;1.10;;;1.10;;
13230;SDS011;6681;53.254;10.398;2022-07-01T08:40:27;1.20;;;1.17;;
13230;SDS011;6681;53.254;10.398;2022-07-01T08:42:56;1.03;;;1.03;;
13230;SDS011;6681;53.254;10.398;2022-07-01T08:45:27;1.33;;;1.23;;
13230;SDS011;6681;53.254;10.398;2022-07-01T08:47:54;1.30;;;1.20;;
13230;SDS011;6681;53.254;10.398;2022-07-01T08:50:29;1.20;;;1.10;;
13230;SDS011;6681;53.254;10.398;2022-07-01T08:53:06;1.50;;;1.17;;
13230;SDS011;6681;53.254;10.398;2022-07-01T08:55:33;1.43;;;0.93;;
13230;SDS011;6681;53.254;10.398;2022-07-01T08:58:22;2.13;;;1.00;;
13230;SDS011;6681;53.254;10.398;2022-07-01T09:00:49;1.20;;;1.10;;
13230;SDS011;6681;53.254;10.398;2022-07-01T09:03:15;1.20;;;1.10;;
13230;SDS011;6681;53.254;10.398;2022-07-01T09:05:50;0.80;;;0.77;;
13230;SDS011;6681;53.254;10.398;2022-07-01T09:08:17;1.10;;;1.10;;
13230;SDS011;6681;53.254;10.398;2022-07-01T09:10:44;3.10;;;1.23;;
13230;SDS011;6681;53.254;10.398;2022-07-01T09:13:10;3.83;;;1.07;;
13230;SDS011;6681;53.254;10.398;2022-07-01T09:15:37;1.80;;;0.87;;
13230;SDS011;6681;53.254;10.398;2022-07-01T09:18:15;2.33;;;1.20;;
13230;SDS011;6681;53.254;10.398;2022-07-01T09:20:43;1.67;;;1.00;;
13230;SDS011;6681;53.254;10.398;2022-07-01T09:25:39;5.07;;;0.80;;
13230;SDS011;6681;53.254;10.398;2022-07-01T09:28:16;3.83;;;1.77;;
13230;SDS011;6681;53.254;10.398;2022-07-01T09:30:44;2.33;;;0.80;;
13230;SDS011;6681;53.254;10.398;2022-07-01T09:33:16;2.77;;;1.20;;
13230;SDS011;6681;53.254;10.398;2022-07-01T09:35:44;2.50;;;1.40;;
13230;SDS011;6681;53.254;10.398;2022-07-01T09:38:12;0.90;;;0.90;;
13230;SDS011;6681;53.254;10.398;2022-07-01T09:40:56;2.83;;;1.90;;
13230;SDS011;6681;53.254;10.398;2022-07-01T09:43:24;1.20;;;1.10;;
13230;SDS011;6681;53.254;10.398;2022-07-01T09:45:55;3.33;;;1.63;;
13230;SDS011;6681;53.254;10.398;2022-07-01T09:48:27;1.10;;;1.00;;
13230;SDS011;6681;53.254;10.398;2022-07-01T09:50:59;1.33;;;1.23;;
13230;SDS011;6681;53.254;10.398;2022-07-01T09:53:26;2.93;;;1.83;;
13230;SDS011;6681;53.254;10.398;2022-07-01T09:55:52;5.30;;;1.47;;
13230;SDS011;6681;53.254;10.398;2022-07-01T09:58:18;1.53;;;1.43;;
13230;SDS011;6681;53.254;10.398;2022-07-01T10:00:44;1.20;;;1.10;;
13230;SDS011;6681;53.254;10.398;2022-07-01T10:03:10;1.20;;;1.10;;
13230;SDS011;6681;53.254;10.398;2022-07-01T10:11:25;2.67;;;1.87;;
13230;SDS011;6681;53.254;10.398;2022-07-01T10:14:12;2.83;;;1.30;;
13230;SDS011;6681;53.254;10.398;2022-07-01T10:16:39;2.33;;;1.20;;
13230;SDS011;6681;53.254;10.398;2022-07-01T10:21:47;2.70;;;2.03;;
13230;SDS011;6681;53.254;10.398;2022-07-01T10:24:15;4.27;;;1.40;;
13230;SDS011;6681;53.254;10.398;2022-07-01T10:26:41;2.20;;;2.00;;
13230;SDS011;6681;53.254;10.398;2022-07-01T10:29:28;1.60;;;1.50;;
13230;SDS011;6681;53.254;10.398;2022-07-01T10:31:53;5.57;;;1.30;;
13230;SDS011;6681;53.254;10.398;2022-07-01T10:34:24;3.37;;;1.83;;
13230;SDS011;6681;53.254;10.398;2022-07-01T10:37:02;2.33;;;1.20;;
13230;SDS011;6681;53.254;10.398;2022-07-01T10:39:29;2.53;;;1.77;;
13230;SDS011;6681;53.254;10.398;2022-07-01T10:44:22;9.10;;;2.00;;
13230;SDS011;6681;53.254;10.398;2022-07-01T10:46:49;2.10;;;1.37;;
13230;SDS011;6681;53.254;10.398;2022-07-01T10:52:05;1.90;;;1.50;;
13230;SDS011;6681;53.254;10.398;2022-07-01T10:59:48;2.43;;;1.43;;
13230;SDS011;6681;53.254;10.398;2022-07-01T11:02:40;4.90;;;3.17;;
13230;SDS011;6681;53.254;10.398;2022-07-01T11:07:36;8.63;;;1.87;;
13230;SDS011;6681;53.254;10.398;2022-07-01T11:10:05;5.60;;;2.03;;
13230;SDS011;6681;53.254;10.398;2022-07-01T11:12:32;2.13;;;1.93;;
13230;SDS011;6681;53.254;10.398;2022-07-01T11:14:59;2.70;;;2.50;;
13230;SDS011;6681;53.254;10.398;2022-07-01T11:17:30;2.57;;;1.60;;
13230;SDS011;6681;53.254;10.398;2022-07-01T11:19:57;2.53;;;2.30;;
13230;SDS011;6681;53.254;10.398;2022-07-01T11:22:33;3.60;;;2.27;;
13230;SDS011;6681;53.254;10.398;2022-07-01T11:25:03;3.10;;;2.67;;
13230;SDS011;6681;53.254;10.398;2022-07-01T11:27:31;3.63;;;2.77;;
13230;SDS011;6681;53.254;10.398;2022-07-01T11:29:58;4.20;;;2.47;;
13230;SDS011;6681;53.254;10.398;2022-07-01T11:32:38;3.23;;;2.70;;
13230;SDS011;6681;53.254;10.398;2022-07-01T11:35:07;3.90;;;3.60;;
13230;SDS011;6681;53.254;10.398;2022-07-01T11:37:52;6.03;;;4.20;;
13230;SDS011;6681;53.254;10.398;2022-07-01T11:40:59;5.13;;;4.63;;
13230;SDS011;6681;53.254;10.398;2022-07-01T11:43:27;3.63;;;3.13;;
13230;SDS011;6681;53.254;10.398;2022-07-01T11:46:02;5.23;;;4.57;;
13230;SDS011;6681;53.254;10.398;2022-07-01T11:50:58;5.70;;;5.10;;
13230;SDS011;6681;53.254;10.398;2022-07-01T11:53:24;6.83;;;6.23;;
13230;SDS011;6681;53.254;10.398;2022-07-01T11:55:50;5.67;;;5.17;;
13230;SDS011;6681;53.254;10.398;2022-07-01T11:58:16;5.83;;;5.40;;
13230;SDS011;6681;53.254;10.398;2022-07-01T12:00:42;5.20;;;4.77;;
13230;SDS011;6681;53.254;10.398;2022-07-01T12:03:07;6.33;;;5.60;;
13230;SDS011;6681;53.254;10.398;2022-07-01T12:05:35;5.90;;;5.33;;
13230;SDS011;6681;53.254;10.398;2022-07-01T12:08:01;6.33;;;5.77;;
13230;SDS011;6681;53.254;10.398;2022-07-01T12:10:28;5.97;;;5.37;;
13230;SDS011;6681;53.254;10.398;2022-07-01T12:12:54;7.07;;;6.37;;
13230;SDS011;6681;53.254;10.398;2022-07-01T12:15:20;6.00;;;5.50;;
13230;SDS011;6681;53.254;10.398;2022-07-01T12:17:45;6.93;;;6.40;;
13230;SDS011;6681;53.254;10.398;2022-07-01T12:20:11;5.83;;;5.43;;
13230;SDS011;6681;53.254;10.398;2022-07-01T12:22:37;6.50;;;6.03;;
13230;SDS011;6681;53.254;10.398;2022-07-01T12:27:36;8.50;;;7.57;;
13230;SDS011;6681;53.254;10.398;2022-07-01T12:30:04;8.30;;;7.60;;
13230;SDS011;6681;53.254;10.398;2022-07-01T12:32:32;7.77;;;7.17;;
13230;SDS011;6681;53.254;10.398;2022-07-01T12:35:02;7.13;;;5.97;;
13230;SDS011;6681;53.254;10.398;2022-07-01T12:37:33;6.33;;;5.83;;
13230;SDS011;6681;53.254;10.398;2022-07-01T12:40:01;8.10;;;7.37;;
13230;SDS011;6681;53.254;10.398;2022-07-01T12:42:34;6.93;;;6.07;;
13230;SDS011;6681;53.254;10.398;2022-07-01T12:45:06;8.20;;;7.27;;
13230;SDS011;6681;53.254;10.398;2022-07-01T12:47:37;6.70;;;6.03;;
13230;SDS011;6681;53.254;10.398;2022-07-01T12:52:36;7.77;;;6.80;;
13230;SDS011;6681;53.254;10.398;2022-07-01T12:55:19;7.57;;;6.83;;
13230;SDS011;6681;53.254;10.398;2022-07-01T12:57:49;9.73;;;7.87;;
13230;SDS011;6681;53.254;10.398;2022-07-01T13:00:17;6.73;;;6.03;;
13230;SDS011;6681;53.254;10.398;2022-07-01T13:02:44;7.60;;;6.90;;
13230;SDS011;6681;53.254;10.398;2022-07-01T13:05:10;9.70;;;8.93;;
13230;SDS011;6681;53.254;10.398;2022-07-01T13:07:36;6.47;;;5.80;;
13230;SDS011;6681;53.254;10.398;2022-07-01T13:10:04;8.10;;;6.10;;
13230;SDS011;6681;53.254;10.398;2022-07-01T13:12:30;7.67;;;6.97;;
13230;SDS011;6681;53.254;10.398;2022-07-01T13:14:56;8.57;;;7.87;;
13230;SDS011;6681;53.254;10.398;2022-07-01T13:17:22;7.57;;;6.97;;
13230;SDS011;6681;53.254;10.398;2022-07-01T13:19:52;7.67;;;7.07;;
13230;SDS011;6681;53.254;10.398;2022-07-01T13:22:18;6.40;;;5.90;;
13230;SDS011;6681;53.254;10.398;2022-07-01T13:24:44;7.93;;;7.23;;
13230;SDS011;6681;53.254;10.398;2022-07-01T13:27:09;6.23;;;5.70;;
13230;SDS011;6681;53.254;10.398;2022-07-01T13:29:35;8.30;;;7.50;;
13230;SDS011;6681;53.254;10.398;2022-07-01T13:32:01;7.97;;;5.67;;
13230;SDS011;6681;53.254;10.398;2022-07-01T13:34:27;7.13;;;6.47;;
13230;SDS011;6681;53.254;10.398;2022-07-01T13:36:53;7.63;;;7.13;;
13230;SDS011;6681;53.254;10.398;2022-07-01T13:39:19;8.23;;;7.43;;
13230;SDS011;6681;53.254;10.398;2022-07-01T13:41:44;8.30;;;7.47;;
13230;SDS011;6681;53.254;10.398;2022-07-01T13:44:10;7.87;;;7.17;;
13230;SDS011;6681;53.254;10.398;2022-07-01T13:46:36;7.73;;;7.13;;
13230;SDS011;6681;53.254;10.398;2022-07-01T13:49:03;8.23;;;7.47;;
13230;SDS011;6681;53.254;10.398;2022-07-01T13:51:29;7.33;;;6.73;;
13230;SDS011;6681;53.254;10.398;2022-07-01T13:53:54;7.13;;;6.53;;
13230;SDS011;6681;53.254;10.398;2022-07-01T13:56:22;8.60;;;7.83;;
13230;SDS011;6681;53.254;10.398;2022-07-01T13:58:48;8.47;;;7.67;;
13230;SDS011;6681;53.254;10.398;2022-07-01T14:01:16;6.37;;;5.87;;
13230;SDS011;6681;53.254;10.398;2022-07-01T14:03:43;6.37;;;5.87;;
13230;SDS011;6681;53.254;10.398;2022-07-01T14:06:08;6.13;;;5.53;;
13230;SDS011;6681;53.254;10.398;2022-07-01T14:08:35;6.53;;;5.93;;
13230;SDS011;6681;53.254;10.398;2022-07-01T14:11:00;6.27;;;5.87;;
13230;SDS011;6681;53.254;10.398;2022-07-01T14:13:26;6.43;;;5.83;;
13230;SDS011;6681;53.254;10.398;2022-07-01T14:15:52;6.97;;;6.37;;
13230;SDS011;6681;53.254;10.398;2022-07-01T14:18:18;5.43;;;5.03;;
13230;SDS011;6681;53.254;10.398;2022-07-01T14:20:44;5.87;;;5.47;;
13230;SDS011;6681;53.254;10.398;2022-07-01T14:23:11;5.53;;;5.13;;
13230;SDS011;6681;53.254;10.398;2022-07-01T14:25:37;5.97;;;5.37;;
13230;SDS011;6681;53.254;10.398;2022-07-01T14:28:04;8.30;;;5.37;;
13230;SDS011;6681;53.254;10.398;2022-07-01T14:30:30;5.93;;;5.43;;
13230;SDS011;6681;53.254;10.398;2022-07-01T14:32:56;7.70;;;6.97;;
13230;SDS011;6681;53.254;10.398;2022-07-01T14:35:21;6.37;;;5.73;;
13230;SDS011;6681;53.254;10.398;2022-07-01T14:37:47;6.07;;;5.27;;
13230;SDS011;6681;53.254;10.398;2022-07-01T14:40:13;5.73;;;5.30;;
13230;SDS011;6681;53.254;10.398;2022-07-01T14:42:39;21.07;;;6.40;;
13230;SDS011;6681;53.254;10.398;2022-07-01T14:45:05;6.33;;;5.73;;
13230;SDS011;6681;53.254;10.398;2022-07-01T14:47:32;6.07;;;5.33;;
13230;SDS011;6681;53.254;10.398;2022-07-01T14:49:58;6.27;;;5.87;;
13230;SDS011;6681;53.254;10.398;2022-07-01T14:52:24;6.13;;;5.53;;
13230;SDS011;6681;53.254;10.398;2022-07-01T14:54:50;6.07;;;5.50;;
13230;SDS011;6681;53.254;10.398;2022-07-01T14:57:17;7.20;;;6.57;;
13230;SDS011;6681;53.254;10.398;2022-07-01T14:59:43;9.07;;;6.03;;
13230;SDS011;6681;53.254;10.398;2022-07-01T15:02:09;6.23;;;5.63;;
13230;SDS011;6681;53.254;10.398;2022-07-01T15:04:34;6.73;;;5.57;;
13230;SDS011;6681;53.254;10.398;2022-07-01T15:07:00;8.10;;;7.27;;
13230;SDS011;6681;53.254;10.398;2022-07-01T15:09:26;6.97;;;6.23;;
13230;SDS011;6681;53.254;10.398;2022-07-01T15:11:52;9.07;;;8.27;;
13230;SDS011;6681;53.254;10.398;2022-07-01T15:14:18;8.73;;;7.83;;
13230;SDS011;6681;53.254;10.398;2022-07-01T15:16:44;7.30;;;6.80;;
13230;SDS011;6681;53.254;10.398;2022-07-01T15:19:10;7.73;;;7.17;;
13230;SDS011;6681;53.254;10.398;2022-07-01T15:21:36;8.40;;;7.60;;